createdAt,value
2017-05-22T00:00:07.342Z,11.70
2017-05-22T00:02:37.045Z,11.70
2017-05-22T00:05:06.757Z,11.70
2017-05-22T00:10:15.971Z,11.70
2017-05-22T00:12:45.692Z,11.60
2017-05-22T00:15:14.645Z,11.60
2017-05-22T00:17:44.335Z,11.60
2017-05-22T00:20:14.031Z,11.50
2017-05-22T00:24:02.839Z,11.50
2017-05-22T00:26:32.531Z,11.40
2017-05-22T00:29:02.432Z,11.30
2017-05-22T00:31:32.103Z,11.20
2017-05-22T00:34:01.807Z,11.20
2017-05-22T00:36:32.261Z,11.10
2017-05-22T00:39:01.967Z,11.20
2017-05-22T00:41:30.940Z,11.10
2017-05-22T00:44:00.656Z,11.10
2017-05-22T00:46:29.633Z,11.10
2017-05-22T00:48:58.647Z,11.10
2017-05-22T00:51:28.372Z,11.00
2017-05-22T00:53:58.072Z,10.90
2017-05-22T00:56:27.776Z,11.00
2017-05-22T00:58:56.676Z,10.90
2017-05-22T01:01:26.404Z,11.00
2017-05-22T01:03:55.325Z,10.90
2017-05-22T01:06:25.004Z,11.00
2017-05-22T01:08:54.696Z,11.00
2017-05-22T01:11:24.382Z,11.00
2017-05-22T01:13:54.065Z,11.00
2017-05-22T01:16:23.791Z,11.00
2017-05-22T01:18:53.479Z,11.00
2017-05-22T01:21:23.536Z,10.90
2017-05-22T01:23:53.236Z,10.80
2017-05-22T01:26:22.907Z,10.90
2017-05-22T01:28:52.064Z,10.90
2017-05-22T01:31:21.800Z,10.90
2017-05-22T01:33:51.472Z,10.90
2017-05-22T01:36:21.315Z,10.90
2017-05-22T01:38:51.066Z,10.80
2017-05-22T01:41:20.852Z,10.80
2017-05-22T01:43:50.532Z,10.80
2017-05-22T01:46:20.219Z,10.70
2017-05-22T01:48:49.117Z,10.60
2017-05-22T01:51:18.068Z,10.60
2017-05-22T01:53:46.993Z,10.50
2017-05-22T01:56:15.905Z,10.60
2017-05-22T01:58:45.555Z,10.60
2017-05-22T02:01:14.475Z,10.50
2017-05-22T02:03:44.141Z,10.60
2017-05-22T02:06:13.806Z,10.70
2017-05-22T02:08:43.483Z,10.60
2017-05-22T02:11:13.184Z,10.60
2017-05-22T02:13:42.149Z,10.50
2017-05-22T02:16:11.110Z,10.60
2017-05-22T02:18:40.827Z,10.70
2017-05-22T02:21:10.605Z,10.70
2017-05-22T02:23:40.352Z,10.70
2017-05-22T02:26:10.079Z,10.80
2017-05-22T02:28:39.762Z,10.80
2017-05-22T02:31:09.523Z,10.80
2017-05-22T02:33:38.422Z,10.70
2017-05-22T02:36:08.112Z,10.70
2017-05-22T02:38:37.791Z,10.70
2017-05-22T02:41:06.724Z,10.60
2017-05-22T02:43:36.396Z,10.50
2017-05-22T02:46:06.743Z,10.30
2017-05-22T02:48:36.377Z,10.30
2017-05-22T02:51:06.072Z,10.20
2017-05-22T02:53:35.062Z,10.20
2017-05-22T02:56:04.752Z,10.20
2017-05-22T02:58:33.647Z,10.10
2017-05-22T03:01:03.368Z,10.10
2017-05-22T03:03:33.037Z,10.10
2017-05-22T03:06:02.728Z,10.00
2017-05-22T03:08:32.462Z,10.00
2017-05-22T03:11:02.227Z,9.90
2017-05-22T03:13:31.963Z,9.90
2017-05-22T03:16:01.680Z,9.90
2017-05-22T03:18:30.583Z,9.80
2017-05-22T03:20:59.513Z,9.80
2017-05-22T03:23:29.191Z,9.80
2017-05-22T03:27:01.549Z,9.80
2017-05-22T03:32:10.738Z,9.80
2017-05-22T03:34:40.423Z,9.70
2017-05-22T03:37:09.372Z,9.60
2017-05-22T03:39:38.301Z,9.70
2017-05-22T03:43:27.311Z,9.60
2017-05-22T03:45:56.988Z,9.60
2017-05-22T03:48:27.006Z,9.60
2017-05-22T03:50:56.674Z,9.60
2017-05-22T03:53:26.364Z,9.70
2017-05-22T03:55:56.064Z,9.80
2017-05-22T03:58:25.770Z,9.90
2017-05-22T04:00:55.495Z,9.90
2017-05-22T04:03:25.228Z,10.00
2017-05-22T04:05:54.916Z,10.10
2017-05-22T04:08:24.599Z,10.20
2017-05-22T04:10:54.263Z,10.20
2017-05-22T04:13:23.963Z,10.30
2017-05-22T04:15:53.694Z,10.40
2017-05-22T04:18:22.617Z,10.30
2017-05-22T04:20:52.320Z,10.60
2017-05-22T04:23:21.288Z,10.50
2017-05-22T04:25:51.043Z,10.90
2017-05-22T04:28:20.732Z,11.10
2017-05-22T04:30:50.512Z,11.30
2017-05-22T04:33:20.431Z,11.50
2017-05-22T04:35:50.180Z,11.70
2017-05-22T04:38:19.887Z,12.00
2017-05-22T04:40:49.573Z,12.60
2017-05-22T04:43:19.317Z,13.20
2017-05-22T04:45:49.017Z,13.90
2017-05-22T04:48:18.671Z,14.00
2017-05-22T04:50:48.404Z,14.20
2017-05-22T04:53:18.149Z,14.40
2017-05-22T04:55:47.869Z,14.50
2017-05-22T04:58:17.598Z,14.30
2017-05-22T05:00:47.339Z,14.40
2017-05-22T05:03:17.063Z,14.30
2017-05-22T05:05:46.760Z,14.30
2017-05-22T05:08:16.473Z,14.60
2017-05-22T05:10:46.151Z,14.80
2017-05-22T05:13:15.884Z,15.40
2017-05-22T05:15:45.591Z,16.40
2017-05-22T05:18:15.744Z,17.30
2017-05-22T05:20:45.423Z,18.00
2017-05-22T05:23:29.377Z,18.40
2017-05-22T05:25:59.952Z,18.10
2017-05-22T05:28:29.660Z,18.10
2017-05-22T05:30:59.494Z,18.60
2017-05-22T05:33:29.270Z,19.30
2017-05-22T05:35:59.043Z,20.10
2017-05-22T05:38:28.783Z,21.10
2017-05-22T05:40:58.559Z,21.20
2017-05-22T05:43:28.291Z,21.00
2017-05-22T05:45:58.044Z,21.50
2017-05-22T05:48:27.846Z,21.50
2017-05-22T05:50:57.622Z,20.70
2017-05-22T05:53:27.369Z,19.70
2017-05-22T05:55:57.080Z,19.70
2017-05-22T05:58:26.767Z,20.60
2017-05-22T06:00:56.557Z,19.40
2017-05-22T06:03:26.352Z,19.60
2017-05-22T06:05:56.211Z,19.40
2017-05-22T06:08:26.311Z,19.90
2017-05-22T06:10:56.033Z,19.40
2017-05-22T06:13:25.806Z,20.10
2017-05-22T06:15:55.512Z,19.90
2017-05-22T06:18:26.198Z,20.40
2017-05-22T06:20:56.017Z,20.30
2017-05-22T06:23:25.677Z,19.60
2017-05-22T06:25:55.367Z,19.60
2017-05-22T06:28:24.324Z,19.60
2017-05-22T06:30:54.080Z,20.30
2017-05-22T06:33:23.803Z,20.20
2017-05-22T06:35:53.660Z,20.60
2017-05-22T06:38:23.416Z,20.60
2017-05-22T06:40:53.143Z,21.00
2017-05-22T06:43:22.918Z,20.60
2017-05-22T06:45:52.755Z,21.40
2017-05-22T06:48:22.512Z,21.70
2017-05-22T06:50:52.291Z,21.10
2017-05-22T06:53:23.595Z,20.90
2017-05-22T06:55:53.327Z,21.70
2017-05-22T06:58:23.113Z,22.00
2017-05-22T07:00:52.956Z,22.70
2017-05-22T07:03:22.668Z,23.00
2017-05-22T07:05:52.433Z,21.90
2017-05-22T07:08:22.260Z,22.30
2017-05-22T07:10:51.993Z,22.30
2017-05-22T07:13:21.014Z,22.20
2017-05-22T07:15:50.809Z,22.00
2017-05-22T07:18:20.538Z,22.70
2017-05-22T07:20:50.308Z,23.70
2017-05-22T07:23:22.680Z,23.80
2017-05-22T07:25:52.881Z,23.50
2017-05-22T07:28:22.720Z,23.00
2017-05-22T07:30:52.444Z,22.20
2017-05-22T07:33:22.254Z,22.20
2017-05-22T07:35:52.017Z,21.90
2017-05-22T07:38:21.941Z,22.80
2017-05-22T07:40:51.717Z,22.40
2017-05-22T07:43:22.013Z,21.90
2017-05-22T07:45:52.387Z,21.50
2017-05-22T07:48:22.245Z,21.90
2017-05-22T07:50:52.006Z,22.30
2017-05-22T07:53:22.008Z,23.10
2017-05-22T07:55:52.035Z,22.90
2017-05-22T07:58:21.089Z,22.90
2017-05-22T08:00:51.036Z,23.10
2017-05-22T08:03:20.943Z,22.60
2017-05-22T08:05:50.740Z,23.40
2017-05-22T08:08:20.625Z,24.10
2017-05-22T08:10:50.474Z,25.00
2017-05-22T08:13:20.256Z,24.70
2017-05-22T08:15:49.978Z,24.30
2017-05-22T08:19:39.083Z,24.20
2017-05-22T08:22:08.822Z,22.90
2017-05-22T08:24:38.543Z,22.90
2017-05-22T08:27:08.331Z,23.40
2017-05-22T08:29:38.271Z,24.50
2017-05-22T08:32:08.401Z,24.50
2017-05-22T08:34:38.127Z,23.10
2017-05-22T08:37:07.808Z,22.70
2017-05-22T08:39:37.675Z,22.80
2017-05-22T08:42:07.431Z,23.20
2017-05-22T08:45:56.515Z,24.80
2017-05-22T08:48:26.240Z,23.00
2017-05-22T08:50:55.972Z,23.00
2017-05-22T08:53:25.766Z,22.80
2017-05-22T08:55:55.519Z,23.50
2017-05-22T08:58:25.280Z,23.60
2017-05-22T09:00:55.035Z,24.00
2017-05-22T09:03:24.838Z,23.10
2017-05-22T09:05:54.549Z,23.30
2017-05-22T09:08:24.318Z,23.40
2017-05-22T09:10:54.144Z,23.80
2017-05-22T09:13:23.992Z,24.90
2017-05-22T09:15:53.801Z,24.60
2017-05-22T09:18:23.658Z,24.90
2017-05-22T09:20:53.536Z,25.60
2017-05-22T09:23:23.254Z,25.60
2017-05-22T09:25:53.548Z,25.20
2017-05-22T09:28:23.544Z,25.10
2017-05-22T09:30:58.291Z,25.00
2017-05-22T09:33:28.138Z,23.00
2017-05-22T09:35:57.991Z,22.30
2017-05-22T09:38:27.896Z,21.90
2017-05-22T09:40:56.977Z,21.80
2017-05-22T09:43:26.720Z,23.40
2017-05-22T09:45:56.535Z,24.10
2017-05-22T09:48:26.324Z,25.20
2017-05-22T09:50:56.133Z,25.00
2017-05-22T09:53:25.928Z,24.40
2017-05-22T09:55:54.884Z,24.40
2017-05-22T09:58:24.677Z,22.50
2017-05-22T10:00:54.937Z,21.50
2017-05-22T10:03:24.700Z,20.90
2017-05-22T10:05:54.628Z,21.20
2017-05-22T10:08:24.758Z,21.20
2017-05-22T10:10:54.591Z,21.00
2017-05-22T10:13:24.507Z,21.50
2017-05-22T10:15:54.229Z,22.40
2017-05-22T10:18:24.180Z,22.00
2017-05-22T10:20:54.052Z,21.40
2017-05-22T10:23:24.015Z,20.90
2017-05-22T10:25:53.905Z,20.60
2017-05-22T10:28:23.732Z,19.70
2017-05-22T10:30:53.590Z,19.90
2017-05-22T10:33:23.416Z,20.60
2017-05-22T10:35:53.581Z,22.40
2017-05-22T10:38:23.384Z,23.70
2017-05-22T10:40:53.648Z,22.60
2017-05-22T10:43:23.569Z,22.60
2017-05-22T10:45:53.356Z,23.50
2017-05-22T10:48:23.152Z,23.50
2017-05-22T10:50:52.994Z,23.80
2017-05-22T10:53:22.821Z,23.20
2017-05-22T10:55:52.587Z,23.70
2017-05-22T10:58:22.831Z,23.60
2017-05-22T11:00:52.755Z,22.90
2017-05-22T11:03:22.863Z,21.80
2017-05-22T11:05:52.756Z,21.20
2017-05-22T11:13:29.371Z,22.10
2017-05-22T11:15:59.251Z,21.10
2017-05-22T11:18:29.144Z,22.20
2017-05-22T11:20:59.060Z,22.90
2017-05-22T11:23:29.841Z,22.80
2017-05-22T11:25:59.772Z,22.30
2017-05-22T11:28:29.624Z,22.80
2017-05-22T11:30:59.760Z,22.30
2017-05-22T11:33:31.273Z,21.90
2017-05-22T11:36:04.781Z,21.80
2017-05-22T11:38:34.725Z,21.90
2017-05-22T11:41:04.511Z,21.80
2017-05-22T11:43:34.440Z,21.90
2017-05-22T11:46:04.815Z,21.30
2017-05-22T11:48:34.703Z,21.20
2017-05-22T11:51:04.532Z,21.40
2017-05-22T11:53:34.396Z,22.10
2017-05-22T11:56:04.268Z,22.30
2017-05-22T11:58:34.156Z,22.40
2017-05-22T12:01:04.852Z,22.70
2017-05-22T12:03:34.665Z,22.30
2017-05-22T12:06:04.579Z,22.30
2017-05-22T12:08:35.366Z,22.60
2017-05-22T12:11:05.191Z,22.60
2017-05-22T12:13:35.001Z,22.90
2017-05-22T12:16:04.933Z,22.90
2017-05-22T12:18:34.881Z,22.60
2017-05-22T12:22:07.388Z,21.90
2017-05-22T12:24:37.330Z,21.90
2017-05-22T12:27:07.257Z,21.90
2017-05-22T12:29:37.589Z,21.80
2017-05-22T12:32:07.427Z,21.90
2017-05-22T12:34:37.209Z,21.60
2017-05-22T12:37:07.026Z,21.70
2017-05-22T12:39:36.921Z,21.40
2017-05-22T12:42:07.886Z,21.40
2017-05-22T12:44:38.181Z,21.50
2017-05-22T12:47:08.256Z,21.80
2017-05-22T12:49:38.047Z,22.00
2017-05-22T12:52:07.845Z,21.70
2017-05-22T12:54:37.652Z,21.40
2017-05-22T12:57:07.835Z,21.60
2017-05-22T12:59:37.648Z,21.90
2017-05-22T13:02:07.375Z,21.80
2017-05-22T13:04:37.346Z,22.50
2017-05-22T13:07:07.186Z,22.40
2017-05-22T13:09:37.315Z,22.00
2017-05-22T13:13:26.496Z,22.00
2017-05-22T13:15:56.402Z,22.00
2017-05-22T13:18:26.278Z,21.70
2017-05-22T13:20:56.364Z,21.70
2017-05-22T13:23:27.129Z,21.80
2017-05-22T13:28:36.118Z,22.40
2017-05-22T13:31:06.280Z,22.20
2017-05-22T13:33:36.206Z,21.90
2017-05-22T13:36:06.120Z,21.60
2017-05-22T13:38:38.945Z,21.40
2017-05-22T13:41:08.817Z,21.40
2017-05-22T13:43:38.711Z,21.40
2017-05-22T13:46:08.529Z,21.50
2017-05-22T13:48:38.390Z,21.60
2017-05-22T13:51:08.205Z,21.80
2017-05-22T13:53:37.974Z,21.70
2017-05-22T13:56:07.807Z,21.30
2017-05-22T13:59:56.712Z,21.20
2017-05-22T14:02:26.522Z,21.00
2017-05-22T14:04:56.325Z,21.10
2017-05-22T14:07:26.268Z,21.30
2017-05-22T14:09:56.668Z,21.30
2017-05-22T14:12:26.567Z,21.10
2017-05-22T14:14:57.195Z,21.00
2017-05-22T14:17:26.651Z,21.00
2017-05-22T14:20:01.945Z,20.90
2017-05-22T14:22:31.780Z,20.80
2017-05-22T14:25:01.724Z,20.70
2017-05-22T14:27:31.520Z,20.80
2017-05-22T14:30:01.370Z,20.70
2017-05-22T14:32:31.230Z,20.80
2017-05-22T14:35:01.043Z,21.10
2017-05-22T14:37:30.887Z,21.40
2017-05-22T14:40:00.673Z,21.60
2017-05-22T14:42:30.464Z,21.40
2017-05-22T14:45:00.363Z,21.40
2017-05-22T14:47:30.220Z,21.20
2017-05-22T14:50:00.927Z,21.20
2017-05-22T14:52:30.808Z,20.90
2017-05-22T14:55:00.601Z,20.90
2017-05-22T14:57:30.509Z,20.90
2017-05-22T15:00:00.406Z,20.70
2017-05-22T15:02:30.208Z,20.40
2017-05-22T15:05:00.362Z,20.30
2017-05-22T15:07:30.142Z,20.50
2017-05-22T15:10:00.036Z,20.60
2017-05-22T15:12:29.836Z,20.70
2017-05-22T15:17:38.589Z,20.40
2017-05-22T15:20:09.009Z,20.40
2017-05-22T15:22:39.727Z,20.40
2017-05-22T15:25:09.461Z,20.30
2017-05-22T15:27:39.326Z,20.20
2017-05-22T15:30:09.145Z,20.20
2017-05-22T15:32:38.997Z,20.20
2017-05-22T15:35:08.835Z,20.10
2017-05-22T15:37:38.634Z,20.00
2017-05-22T15:40:08.587Z,19.90
2017-05-22T15:42:38.414Z,20.00
2017-05-22T15:45:08.665Z,20.20
2017-05-22T15:47:38.512Z,20.10
2017-05-22T15:50:08.253Z,20.20
2017-05-22T15:52:38.789Z,20.20
2017-05-22T15:55:09.168Z,20.30
2017-05-22T15:57:39.174Z,20.50
2017-05-22T16:00:08.932Z,20.30
2017-05-22T16:02:38.899Z,20.40
2017-05-22T16:05:08.708Z,20.40
2017-05-22T16:07:38.452Z,20.40
2017-05-22T16:10:08.288Z,20.30
2017-05-22T16:12:38.157Z,20.20
2017-05-22T16:15:07.977Z,20.20
2017-05-22T16:17:37.757Z,20.00
2017-05-22T16:20:07.541Z,20.00
2017-05-22T16:22:37.267Z,20.10
2017-05-22T16:25:07.927Z,20.10
2017-05-22T16:27:37.751Z,20.20
2017-05-22T16:30:09.556Z,20.10
2017-05-22T16:32:44.010Z,20.10
2017-05-22T16:35:13.904Z,20.00
2017-05-22T16:37:43.899Z,19.90
2017-05-22T16:40:13.765Z,20.00
2017-05-22T16:42:44.077Z,20.00
2017-05-22T16:45:13.856Z,20.00
2017-05-22T16:47:43.846Z,19.80
2017-05-22T16:50:13.749Z,19.90
2017-05-22T16:55:23.150Z,19.80
2017-05-22T16:57:53.040Z,19.90
2017-05-22T17:00:22.873Z,19.80
2017-05-22T17:02:54.901Z,19.80
2017-05-22T17:05:24.819Z,19.60
2017-05-22T17:07:54.683Z,19.60
2017-05-22T17:10:24.709Z,19.70
2017-05-22T17:14:13.874Z,19.70
2017-05-22T17:16:44.751Z,19.80
2017-05-22T17:19:14.704Z,19.70
2017-05-22T17:21:45.424Z,19.70
2017-05-22T17:24:16.992Z,19.60
2017-05-22T17:26:46.920Z,19.60
2017-05-22T17:29:18.489Z,19.50
2017-05-22T17:31:48.462Z,19.50
2017-05-22T17:34:18.327Z,19.40
2017-05-22T17:36:48.260Z,19.40
2017-05-22T17:39:18.079Z,19.40
2017-05-22T17:41:47.948Z,19.30
2017-05-22T17:44:17.884Z,19.30
2017-05-22T17:46:47.672Z,19.20
2017-05-22T17:49:18.653Z,19.20
2017-05-22T17:51:48.614Z,19.20
2017-05-22T17:54:18.617Z,19.10
2017-05-22T17:56:48.655Z,19.00
2017-05-22T17:59:18.960Z,19.00
2017-05-22T18:01:48.906Z,19.00
2017-05-22T18:04:18.775Z,18.90
2017-05-22T18:06:48.532Z,18.90
2017-05-22T18:09:18.374Z,18.80
2017-05-22T18:11:49.797Z,18.80
2017-05-22T18:14:20.490Z,18.80
2017-05-22T18:16:50.960Z,18.70
2017-05-22T18:19:20.856Z,18.60
2017-05-22T18:21:50.631Z,18.50
2017-05-22T18:24:20.481Z,18.50
2017-05-22T18:26:51.606Z,18.40
2017-05-22T18:29:22.817Z,18.40
2017-05-22T18:31:53.682Z,18.30
2017-05-22T18:34:23.539Z,18.30
2017-05-22T18:36:53.458Z,18.20
2017-05-22T18:39:24.283Z,18.20
2017-05-22T18:41:54.681Z,18.10
2017-05-22T18:44:24.503Z,18.00
2017-05-22T18:46:54.289Z,17.90
2017-05-22T18:49:24.094Z,17.60
2017-05-22T18:51:54.804Z,17.40
2017-05-22T18:54:24.651Z,17.30
2017-05-22T18:56:56.816Z,17.20
2017-05-22T19:00:29.849Z,17.20
2017-05-22T19:02:59.698Z,17.10
2017-05-22T19:05:29.494Z,17.00
2017-05-22T19:07:59.357Z,16.80
2017-05-22T19:10:28.919Z,16.80
2017-05-22T19:12:59.684Z,16.70
2017-05-22T19:15:29.496Z,16.50
2017-05-22T19:18:04.760Z,16.50
2017-05-22T19:20:37.720Z,16.50
2017-05-22T19:23:07.498Z,16.40
2017-05-22T19:25:37.499Z,16.40
2017-05-22T19:28:07.380Z,16.40
2017-05-22T19:30:37.911Z,16.30
2017-05-22T19:33:08.457Z,16.20
2017-05-22T19:35:39.320Z,16.10
2017-05-22T19:38:09.095Z,16.10
2017-05-22T19:40:38.883Z,16.00
2017-05-22T19:43:09.661Z,16.10
2017-05-22T19:45:41.079Z,16.00
2017-05-22T19:48:12.712Z,15.90
2017-05-22T19:50:43.069Z,15.80
2017-05-22T19:53:13.897Z,15.80
2017-05-22T19:55:43.691Z,15.70
2017-05-22T19:58:14.049Z,15.70
2017-05-22T20:00:43.180Z,15.60
2017-05-22T20:03:13.561Z,15.50
2017-05-22T20:05:44.317Z,15.40
2017-05-22T20:08:14.099Z,15.40
2017-05-22T20:10:43.970Z,15.30
2017-05-22T20:13:14.547Z,15.30
2017-05-22T20:15:45.371Z,15.30
2017-05-22T20:18:15.215Z,15.30
2017-05-22T20:20:46.680Z,15.30
2017-05-22T20:23:17.320Z,15.40
2017-05-22T20:25:47.108Z,15.50
2017-05-22T20:28:17.797Z,15.50
2017-05-22T20:30:48.480Z,15.50
2017-05-22T20:33:19.502Z,15.40
2017-05-22T20:35:49.678Z,15.40
2017-05-22T20:38:19.525Z,15.40
2017-05-22T20:40:50.236Z,15.40
2017-05-22T20:43:20.041Z,15.40
2017-05-22T20:45:49.789Z,15.30
2017-05-22T20:48:20.463Z,15.50
2017-05-22T20:50:51.075Z,15.50
2017-05-22T20:53:20.131Z,15.40
2017-05-22T20:55:49.934Z,15.50
2017-05-22T20:58:19.748Z,15.50
2017-05-22T21:00:49.530Z,15.50
2017-05-22T21:03:19.312Z,15.50
2017-05-22T21:05:49.060Z,15.40
2017-05-22T21:08:20.324Z,15.30
2017-05-22T21:10:50.646Z,15.20
2017-05-22T21:13:20.386Z,15.20
2017-05-22T21:15:49.985Z,15.10
2017-05-22T21:18:22.314Z,15.20
2017-05-22T21:20:52.107Z,15.10
2017-05-22T21:23:21.423Z,15.10
2017-05-22T21:25:51.819Z,15.10
2017-05-22T21:28:21.608Z,15.20
2017-05-22T21:30:51.400Z,15.20
2017-05-22T21:33:20.951Z,15.10
2017-05-22T21:35:50.720Z,15.10
2017-05-22T21:38:20.439Z,15.10
2017-05-22T21:40:51.408Z,15.20
2017-05-22T21:43:22.036Z,15.20
2017-05-22T21:45:53.011Z,15.10
2017-05-22T21:48:22.813Z,15.10
2017-05-22T21:50:52.014Z,15.00
2017-05-22T21:53:21.778Z,15.10
2017-05-22T21:55:51.557Z,15.10
2017-05-22T21:58:35.421Z,15.10
2017-05-22T22:01:05.700Z,15.10
2017-05-22T22:03:34.715Z,15.10
2017-05-22T22:06:05.043Z,15.00
2017-05-22T22:08:34.734Z,15.00
2017-05-22T22:11:03.776Z,15.00
2017-05-22T22:13:32.711Z,15.00
2017-05-22T22:16:02.461Z,14.90
2017-05-22T22:18:32.492Z,14.90
2017-05-22T22:21:02.225Z,14.90
2017-05-22T22:23:31.920Z,14.90
2017-05-22T22:26:00.903Z,14.80
2017-05-22T22:28:29.923Z,14.80
2017-05-22T22:30:59.686Z,14.80
2017-05-22T22:33:29.704Z,14.90
2017-05-22T22:35:59.479Z,14.90
2017-05-22T22:38:28.469Z,14.80
2017-05-22T22:40:58.194Z,14.80
2017-05-22T22:43:27.916Z,14.80
2017-05-22T22:45:57.679Z,14.90
2017-05-22T22:48:27.392Z,14.90
2017-05-22T22:50:57.125Z,14.80
2017-05-22T22:53:26.051Z,14.80
2017-05-22T22:55:55.774Z,14.90
2017-05-22T22:58:25.484Z,14.90
2017-05-22T23:00:54.460Z,14.80
2017-05-22T23:03:24.194Z,14.90
2017-05-22T23:05:53.892Z,15.00
2017-05-22T23:08:23.625Z,15.00
2017-05-22T23:10:53.421Z,14.90
2017-05-22T23:13:22.444Z,14.80
2017-05-22T23:15:52.206Z,14.60
2017-05-22T23:18:23.480Z,14.60
2017-05-22T23:26:40.496Z,14.60
2017-05-22T23:29:10.281Z,14.70
2017-05-22T23:31:40.061Z,14.70
2017-05-22T23:34:09.081Z,14.70
2017-05-22T23:36:38.926Z,14.50
2017-05-22T23:39:07.921Z,14.50
2017-05-22T23:41:37.711Z,14.60
2017-05-22T23:44:06.722Z,14.60
2017-05-22T23:46:36.470Z,14.60
2017-05-22T23:49:05.457Z,14.60
2017-05-22T23:51:36.194Z,14.60
2017-05-22T23:54:06.693Z,14.50
2017-05-22T23:56:36.427Z,14.40
2017-05-22T23:59:06.147Z,14.30
